createdAt,value
2022-10-02T00:00:00.336Z,12.28
2022-10-02T00:03:08.631Z,12.23
2022-10-02T00:05:43.571Z,12.26
2022-10-02T00:08:18.910Z,12.21
2022-10-02T00:10:53.355Z,12.21
2022-10-02T00:13:28.841Z,12.24
2022-10-02T00:15:56.517Z,12.28
2022-10-02T00:18:29.106Z,12.39
2022-10-02T00:20:55.889Z,12.47
2022-10-02T00:23:54.323Z,12.48
2022-10-02T00:26:42.300Z,12.30
2022-10-02T00:29:27.779Z,12.29
2022-10-02T00:32:16.170Z,12.23
2022-10-02T00:34:54.048Z,12.33
2022-10-02T00:37:36.185Z,12.22
2022-10-02T00:40:05.713Z,12.15
2022-10-02T00:42:44.289Z,12.05
2022-10-02T00:45:32.933Z,12.04
2022-10-02T00:48:15.278Z,12.10
2022-10-02T00:51:07.588Z,12.11
2022-10-02T00:53:34.288Z,12.06
2022-10-02T00:56:19.584Z,11.94
2022-10-02T00:58:55.687Z,12.03
2022-10-02T01:01:29.162Z,11.93
2022-10-02T01:03:56.607Z,11.86
2022-10-02T01:06:25.699Z,11.90
2022-10-02T01:08:52.865Z,11.86
2022-10-02T01:11:24.541Z,11.85
2022-10-02T01:13:51.481Z,11.84
2022-10-02T01:16:18.520Z,11.79
2022-10-02T01:18:48.024Z,11.81
2022-10-02T01:21:42.250Z,11.77
2022-10-02T01:24:27.419Z,11.74
2022-10-02T01:26:54.240Z,11.74
2022-10-02T01:29:20.939Z,11.73
2022-10-02T01:31:47.822Z,11.71
2022-10-02T01:34:15.420Z,11.72
2022-10-02T01:36:42.485Z,11.70
2022-10-02T01:39:09.517Z,11.72
2022-10-02T01:41:43.837Z,11.75
2022-10-02T01:44:11.764Z,11.75
2022-10-02T01:47:01.768Z,11.90
2022-10-02T01:49:47.209Z,11.94
2022-10-02T01:52:46.744Z,11.97
2022-10-02T01:55:28.448Z,11.99
2022-10-02T01:58:10.884Z,11.90
2022-10-02T02:01:03.810Z,11.88
2022-10-02T02:03:48.027Z,11.88
2022-10-02T02:06:27.153Z,11.84
2022-10-02T02:09:32.541Z,11.87
2022-10-02T02:12:22.654Z,11.90
2022-10-02T02:15:01.730Z,11.98
2022-10-02T02:17:45.864Z,11.98
2022-10-02T02:20:22.904Z,12.01
2022-10-02T02:22:52.727Z,12.04
2022-10-02T02:25:25.432Z,12.03
2022-10-02T02:27:57.291Z,12.01
2022-10-02T02:30:25.337Z,11.84
2022-10-02T02:33:02.007Z,11.74
2022-10-02T02:35:39.370Z,11.62
2022-10-02T02:38:12.106Z,11.54
2022-10-02T02:40:43.311Z,11.46
2022-10-02T02:43:22.046Z,11.50
2022-10-02T02:45:57.095Z,11.55
2022-10-02T02:48:29.928Z,11.54
2022-10-02T02:51:01.696Z,11.58
2022-10-02T02:53:37.998Z,11.52
2022-10-02T02:56:07.798Z,11.50
2022-10-02T02:58:58.650Z,11.48
2022-10-02T03:01:25.675Z,11.36
2022-10-02T03:03:52.401Z,11.44
2022-10-02T03:06:19.105Z,11.45
2022-10-02T03:08:48.351Z,11.35
2022-10-02T03:11:44.461Z,11.33
2022-10-02T03:14:52.641Z,11.42
2022-10-02T03:17:37.847Z,11.36
2022-10-02T03:20:17.556Z,11.37
2022-10-02T03:22:44.269Z,11.45
2022-10-02T03:25:26.213Z,11.36
2022-10-02T03:28:01.832Z,11.33
2022-10-02T03:30:29.659Z,11.24
2022-10-02T03:33:00.946Z,11.32
2022-10-02T03:35:29.296Z,11.24
2022-10-02T03:38:05.919Z,11.21
2022-10-02T03:40:32.772Z,11.25
2022-10-02T03:42:59.622Z,11.25
2022-10-02T03:45:49.848Z,11.21
2022-10-02T03:48:15.516Z,11.11
2022-10-02T03:50:42.498Z,11.18
2022-10-02T03:53:18.422Z,11.09
2022-10-02T03:55:58.368Z,11.07
2022-10-02T03:58:25.791Z,11.10
2022-10-02T04:00:56.222Z,11.13
2022-10-02T04:03:29.183Z,11.18
2022-10-02T04:06:17.944Z,11.08
2022-10-02T04:08:55.377Z,11.06
2022-10-02T04:11:32.488Z,11.06
2022-10-02T04:14:03.949Z,10.96
2022-10-02T04:16:42.653Z,10.96
2022-10-02T04:19:24.832Z,11.01
2022-10-02T04:21:59.410Z,11.00
2022-10-02T04:24:39.585Z,10.96
2022-10-02T04:27:23.033Z,10.93
2022-10-02T04:29:59.025Z,10.97
2022-10-02T04:32:27.809Z,10.96
2022-10-02T04:34:54.643Z,10.96
2022-10-02T04:37:52.120Z,10.96
2022-10-02T04:40:36.797Z,11.00
2022-10-02T04:43:27.830Z,11.06
2022-10-02T04:46:06.377Z,10.96
2022-10-02T04:49:10.122Z,10.96
2022-10-02T04:51:53.551Z,10.97
2022-10-02T04:54:38.524Z,11.04
2022-10-02T04:57:17.163Z,11.08
2022-10-02T05:00:07.040Z,11.10
2022-10-02T05:03:11.403Z,11.14
2022-10-02T05:05:59.873Z,11.09
2022-10-02T05:08:57.382Z,11.18
2022-10-02T05:12:13.379Z,11.21
2022-10-02T05:15:07.294Z,11.19
2022-10-02T05:17:50.774Z,11.37
2022-10-02T05:21:00.625Z,11.40
2022-10-02T05:23:45.563Z,11.52
2022-10-02T05:26:35.031Z,11.66
2022-10-02T05:29:04.936Z,11.74
2022-10-02T05:31:39.851Z,11.84
2022-10-02T05:34:12.855Z,11.86
2022-10-02T05:37:06.627Z,12.02
2022-10-02T05:39:45.097Z,12.08
2022-10-02T05:42:42.884Z,12.29
2022-10-02T05:45:35.562Z,12.38
2022-10-02T05:48:08.579Z,12.38
2022-10-02T05:50:37.965Z,12.49
2022-10-02T05:53:21.840Z,12.56
2022-10-02T05:55:55.454Z,12.53
2022-10-02T05:58:38.480Z,12.55
2022-10-02T06:01:12.308Z,12.63
2022-10-02T06:03:49.142Z,12.71
2022-10-02T06:06:31.042Z,12.75
2022-10-02T06:09:20.451Z,12.76
2022-10-02T06:12:00.551Z,12.82
2022-10-02T06:14:49.842Z,12.86
2022-10-02T06:17:27.662Z,12.87
2022-10-02T06:20:03.580Z,12.98
2022-10-02T06:23:09.447Z,12.96
2022-10-02T06:25:47.323Z,13.03
2022-10-02T06:28:28.931Z,13.10
2022-10-02T06:31:07.378Z,13.18
2022-10-02T06:33:34.338Z,13.31
2022-10-02T06:36:45.942Z,13.44
2022-10-02T06:39:21.840Z,13.46
2022-10-02T06:42:00.259Z,13.54
2022-10-02T06:44:48.078Z,13.70
2022-10-02T06:47:51.878Z,13.79
2022-10-02T06:50:37.522Z,13.91
2022-10-02T06:53:37.935Z,14.00
2022-10-02T06:56:35.265Z,14.00
2022-10-02T06:59:24.836Z,13.85
2022-10-02T07:02:23.892Z,13.85
2022-10-02T07:04:56.438Z,13.82
2022-10-02T07:08:00.940Z,13.98
2022-10-02T07:10:43.108Z,13.94
2022-10-02T07:13:18.614Z,13.91
2022-10-02T07:16:09.139Z,13.96
2022-10-02T07:18:56.295Z,14.02
2022-10-02T07:21:44.605Z,14.10
2022-10-02T07:24:45.428Z,14.19
2022-10-02T07:27:23.590Z,14.20
2022-10-02T07:30:30.773Z,14.16
2022-10-02T07:33:19.543Z,14.14
2022-10-02T07:36:01.655Z,14.19
2022-10-02T07:39:11.576Z,14.30
2022-10-02T07:41:38.312Z,14.35
2022-10-02T07:44:14.574Z,14.39
2022-10-02T07:47:00.996Z,14.44
2022-10-02T07:49:36.766Z,14.51
2022-10-02T07:52:57.223Z,14.53
2022-10-02T07:55:25.537Z,14.55
2022-10-02T07:58:36.637Z,14.59
2022-10-02T08:01:13.871Z,14.65
2022-10-02T08:04:03.715Z,14.73
2022-10-02T08:06:31.756Z,14.74
2022-10-02T08:09:09.148Z,14.66
2022-10-02T08:11:38.461Z,14.62
2022-10-02T08:14:19.459Z,14.61
2022-10-02T08:16:50.021Z,14.68
2022-10-02T08:19:27.147Z,14.59
2022-10-02T08:22:16.293Z,14.61
2022-10-02T08:24:49.233Z,14.64
2022-10-02T08:27:23.388Z,14.68
2022-10-02T08:30:04.037Z,14.76
2022-10-02T08:32:36.196Z,14.78
2022-10-02T08:35:12.460Z,14.85
2022-10-02T08:37:39.150Z,14.96
2022-10-02T08:40:39.967Z,15.00
2022-10-02T08:43:17.218Z,15.04
2022-10-02T08:46:03.045Z,15.03
2022-10-02T08:48:55.387Z,15.16
2022-10-02T08:51:53.241Z,15.21
2022-10-02T08:55:05.487Z,15.34
2022-10-02T08:58:07.587Z,15.41
2022-10-02T09:01:04.531Z,15.52
2022-10-02T09:04:00.657Z,15.81
2022-10-02T09:06:45.738Z,15.88
2022-10-02T09:09:43.113Z,15.91
2022-10-02T09:12:48.151Z,16.00
2022-10-02T09:15:23.805Z,16.05
2022-10-02T09:18:21.310Z,16.09
2022-10-02T09:21:09.321Z,16.14
2022-10-02T09:24:15.339Z,16.21
2022-10-02T09:26:51.099Z,16.29
2022-10-02T09:29:42.501Z,16.36
2022-10-02T09:32:18.290Z,16.49
2022-10-02T09:35:09.263Z,16.58
2022-10-02T09:38:05.577Z,16.62
2022-10-02T09:40:54.350Z,16.61
2022-10-02T09:43:39.058Z,16.65
2022-10-02T09:46:51.162Z,16.71
2022-10-02T09:49:36.494Z,16.82
2022-10-02T09:52:03.236Z,16.81
2022-10-02T09:54:50.781Z,16.83
2022-10-02T09:57:48.993Z,16.79
2022-10-02T10:00:51.998Z,16.74
2022-10-02T10:03:24.517Z,16.63
2022-10-02T10:06:12.996Z,16.55
2022-10-02T10:09:05.322Z,16.39
2022-10-02T10:11:55.125Z,16.28
2022-10-02T10:14:21.691Z,16.18
2022-10-02T10:17:26.948Z,16.20
2022-10-02T10:19:53.557Z,16.18
2022-10-02T10:22:57.879Z,16.18
2022-10-02T10:25:28.362Z,16.18
2022-10-02T10:28:10.204Z,16.19
2022-10-02T10:31:05.966Z,16.17
2022-10-02T10:33:54.125Z,16.06
2022-10-02T10:36:54.508Z,16.08
2022-10-02T10:39:52.443Z,16.09
2022-10-02T10:43:05.969Z,16.06
2022-10-02T10:45:50.241Z,16.00
2022-10-02T10:48:28.823Z,16.00
2022-10-02T10:50:55.617Z,15.99
2022-10-02T10:54:02.124Z,15.97
2022-10-02T10:56:46.386Z,15.94
2022-10-02T10:59:42.390Z,15.95
2022-10-02T11:02:44.525Z,15.94
2022-10-02T11:05:48.570Z,15.91
2022-10-02T11:08:47.394Z,15.90
2022-10-02T11:11:22.793Z,15.91
2022-10-02T11:13:53.842Z,15.89
2022-10-02T11:16:53.020Z,15.96
2022-10-02T11:19:21.622Z,15.98
2022-10-02T11:22:08.439Z,16.00
2022-10-02T11:25:12.854Z,16.03
2022-10-02T11:28:11.311Z,16.05
2022-10-02T11:31:09.196Z,16.11
2022-10-02T11:33:58.877Z,16.11
2022-10-02T11:37:00.093Z,16.11
2022-10-02T11:39:43.076Z,16.03
2022-10-02T11:42:34.514Z,16.03
2022-10-02T11:45:19.741Z,16.04
2022-10-02T11:48:09.059Z,16.03
2022-10-02T11:50:44.697Z,16.08
2022-10-02T11:53:34.727Z,16.05
2022-10-02T11:56:26.753Z,16.08
2022-10-02T11:59:30.941Z,16.08
2022-10-02T12:02:31.306Z,16.09
2022-10-02T12:05:15.729Z,16.12
2022-10-02T12:08:03.529Z,16.14
2022-10-02T12:10:50.732Z,16.14
2022-10-02T12:13:35.946Z,16.13
2022-10-02T12:16:17.280Z,16.10
2022-10-02T12:19:04.611Z,16.17
2022-10-02T12:22:10.515Z,16.17
2022-10-02T12:25:06.393Z,16.14
2022-10-02T12:27:51.283Z,16.15
2022-10-02T12:30:22.335Z,16.15
2022-10-02T12:32:56.188Z,16.18
2022-10-02T12:35:44.387Z,16.22
2022-10-02T12:38:39.797Z,16.26
2022-10-02T12:41:34.141Z,16.30
2022-10-02T12:44:24.269Z,16.24
2022-10-02T12:46:55.066Z,16.19
2022-10-02T12:49:30.951Z,16.22
2022-10-02T12:52:07.078Z,16.25
2022-10-02T12:54:36.858Z,16.23
2022-10-02T12:57:40.334Z,16.17
2022-10-02T13:00:16.329Z,16.10
2022-10-02T13:03:08.007Z,16.05
2022-10-02T13:06:14.425Z,16.04
2022-10-02T13:09:00.881Z,16.03
2022-10-02T13:11:45.974Z,15.98
2022-10-02T13:14:39.058Z,15.88
2022-10-02T13:17:18.313Z,15.90
2022-10-02T13:20:03.261Z,15.94
2022-10-02T13:22:49.146Z,15.97
2022-10-02T13:25:24.051Z,16.01
2022-10-02T13:28:00.785Z,16.04
2022-10-02T13:30:55.450Z,16.03
2022-10-02T13:33:35.371Z,16.12
2022-10-02T13:36:13.882Z,16.12
2022-10-02T13:39:07.084Z,16.14
2022-10-02T13:41:52.520Z,16.18
2022-10-02T13:44:41.090Z,16.26
2022-10-02T13:47:31.698Z,16.32
2022-10-02T13:50:20.811Z,16.38
2022-10-02T13:52:53.431Z,16.73
2022-10-02T13:55:26.477Z,16.69
2022-10-02T13:58:33.241Z,16.55
2022-10-02T14:01:12.231Z,16.56
2022-10-02T14:04:06.949Z,16.54
2022-10-02T14:07:20.974Z,16.52
2022-10-02T14:10:06.427Z,16.56
2022-10-02T14:12:57.878Z,16.50
2022-10-02T14:15:45.634Z,16.42
2022-10-02T14:18:21.355Z,16.42
2022-10-02T14:21:00.431Z,16.46
2022-10-02T14:23:44.960Z,16.46
2022-10-02T14:26:34.099Z,16.51
2022-10-02T14:29:31.566Z,17.12
2022-10-02T14:32:24.440Z,17.64
2022-10-02T14:35:11.124Z,17.05
2022-10-02T14:38:03.847Z,16.83
2022-10-02T14:40:45.344Z,16.70
2022-10-02T14:43:26.912Z,16.63
2022-10-02T14:46:00.249Z,16.61
2022-10-02T14:48:54.675Z,16.53
2022-10-02T14:52:00.329Z,16.42
2022-10-02T14:54:48.238Z,16.35
2022-10-02T14:57:37.705Z,16.28
2022-10-02T15:00:17.050Z,16.20
2022-10-02T15:02:51.326Z,16.18
2022-10-02T15:05:33.166Z,16.17
2022-10-02T15:08:00.213Z,16.18
2022-10-02T15:10:33.373Z,16.17
2022-10-02T15:13:09.827Z,16.16
2022-10-02T15:16:16.065Z,16.16
2022-10-02T15:18:57.559Z,16.15
2022-10-02T15:21:42.876Z,16.08
2022-10-02T15:24:28.473Z,16.04
2022-10-02T15:27:08.108Z,16.01
2022-10-02T15:29:57.774Z,15.96
2022-10-02T15:32:34.594Z,15.89
2022-10-02T15:35:39.787Z,15.82
2022-10-02T15:38:28.331Z,15.77
2022-10-02T15:41:13.006Z,15.76
2022-10-02T15:44:09.758Z,15.70
2022-10-02T15:47:14.531Z,15.71
2022-10-02T15:50:19.020Z,15.67
2022-10-02T15:53:05.521Z,15.59
2022-10-02T15:55:41.778Z,15.64
2022-10-02T15:58:12.691Z,15.62
2022-10-02T16:01:00.853Z,15.58
2022-10-02T16:03:54.090Z,15.58
2022-10-02T16:06:50.724Z,15.62
2022-10-02T16:09:34.991Z,15.62
2022-10-02T16:12:20.288Z,15.60
2022-10-02T16:15:00.817Z,15.50
2022-10-02T16:17:36.874Z,15.48
2022-10-02T16:20:18.570Z,15.48
2022-10-02T16:23:21.572Z,15.45
2022-10-02T16:26:14.563Z,15.44
2022-10-02T16:28:49.086Z,15.44
2022-10-02T16:31:42.134Z,15.50
2022-10-02T16:34:34.915Z,15.50
2022-10-02T16:37:05.559Z,15.46
2022-10-02T16:39:44.541Z,15.45
2022-10-02T16:42:20.404Z,15.41
2022-10-02T16:45:03.625Z,15.37
2022-10-02T16:47:44.615Z,15.40
2022-10-02T16:50:33.361Z,15.44
2022-10-02T16:53:11.962Z,15.40
2022-10-02T16:55:45.248Z,15.32
2022-10-02T16:58:42.241Z,15.39
2022-10-02T17:01:27.188Z,15.41
2022-10-02T17:04:22.527Z,15.36
2022-10-02T17:07:02.931Z,15.42
2022-10-02T17:09:45.318Z,15.45
2022-10-02T17:12:43.809Z,15.46
2022-10-02T17:15:32.228Z,15.37
2022-10-02T17:18:13.308Z,15.35
2022-10-02T17:20:49.902Z,15.46
2022-10-02T17:23:35.325Z,15.44
2022-10-02T17:26:08.872Z,15.43
2022-10-02T17:28:53.543Z,15.42
2022-10-02T17:31:28.559Z,15.42
2022-10-02T17:34:11.940Z,15.38
2022-10-02T17:36:57.040Z,15.33
2022-10-02T17:39:32.850Z,15.27
2022-10-02T17:42:32.757Z,15.22
2022-10-02T17:45:08.175Z,15.20
2022-10-02T17:48:05.812Z,15.19
2022-10-02T17:50:53.511Z,15.17
2022-10-02T17:54:01.338Z,15.02
2022-10-02T17:57:25.384Z,14.95
2022-10-02T18:00:10.047Z,14.80
2022-10-02T18:02:55.356Z,14.79
2022-10-02T18:05:47.038Z,14.74
2022-10-02T18:08:33.493Z,14.78
2022-10-02T18:11:08.716Z,14.69
2022-10-02T18:14:30.013Z,14.66
2022-10-02T18:17:08.612Z,14.62
2022-10-02T18:19:38.015Z,14.64
2022-10-02T18:22:16.961Z,14.61
2022-10-02T18:25:14.362Z,14.48
2022-10-02T18:28:11.427Z,14.39
2022-10-02T18:30:54.071Z,14.42
2022-10-02T18:33:28.894Z,14.38
2022-10-02T18:36:10.802Z,14.38
2022-10-02T18:39:00.477Z,14.41
2022-10-02T18:41:48.923Z,14.45
2022-10-02T18:44:34.455Z,14.44
2022-10-02T18:47:26.402Z,14.44
2022-10-02T18:50:18.603Z,14.45
2022-10-02T18:53:02.013Z,14.40
2022-10-02T18:55:45.021Z,14.55
2022-10-02T18:58:26.924Z,14.61
2022-10-02T19:01:16.942Z,14.60
2022-10-02T19:04:10.490Z,14.53
2022-10-02T19:06:55.693Z,14.44
2022-10-02T19:09:26.876Z,14.45
2022-10-02T19:12:01.285Z,14.48
2022-10-02T19:14:42.340Z,14.48
2022-10-02T19:17:15.412Z,14.46
2022-10-02T19:19:43.575Z,14.49
2022-10-02T19:22:19.639Z,14.44
2022-10-02T19:24:50.442Z,14.27
2022-10-02T19:27:24.294Z,14.19
2022-10-02T19:29:59.692Z,14.09
2022-10-02T19:32:41.335Z,14.04
2022-10-02T19:35:16.853Z,14.05
2022-10-02T19:37:47.096Z,14.02
2022-10-02T19:40:18.336Z,14.02
2022-10-02T19:43:20.553Z,14.09
2022-10-02T19:45:53.955Z,14.06
2022-10-02T19:48:20.896Z,14.08
2022-10-02T19:50:53.911Z,14.12
2022-10-02T19:53:24.841Z,14.14
2022-10-02T19:55:59.986Z,14.26
2022-10-02T19:58:37.678Z,14.26
2022-10-02T20:01:14.812Z,14.24
2022-10-02T20:03:43.882Z,14.14
2022-10-02T20:06:19.344Z,14.10
2022-10-02T20:08:53.933Z,14.07
2022-10-02T20:11:36.869Z,14.07
2022-10-02T20:14:21.642Z,14.08
2022-10-02T20:17:07.123Z,14.03
2022-10-02T20:19:50.729Z,14.00
2022-10-02T20:22:40.248Z,14.08
2022-10-02T20:25:29.069Z,13.99
2022-10-02T20:28:11.031Z,14.01
2022-10-02T20:30:50.205Z,13.95
2022-10-02T20:33:40.030Z,13.96
2022-10-02T20:36:14.247Z,13.90
2022-10-02T20:39:02.124Z,13.85
2022-10-02T20:41:36.124Z,13.76
2022-10-02T20:44:04.583Z,13.74
2022-10-02T20:46:35.789Z,13.71
2022-10-02T20:49:17.818Z,13.74
2022-10-02T20:52:23.503Z,13.58
2022-10-02T20:55:22.329Z,13.49
2022-10-02T20:58:17.015Z,13.55
2022-10-02T21:01:05.252Z,13.50
2022-10-02T21:03:50.667Z,13.61
2022-10-02T21:06:46.872Z,13.58
2022-10-02T21:09:32.284Z,13.61
2022-10-02T21:12:43.455Z,13.63
2022-10-02T21:15:24.726Z,13.53
2022-10-02T21:18:07.062Z,13.61
2022-10-02T21:20:55.642Z,13.69
2022-10-02T21:23:45.197Z,13.70
2022-10-02T21:26:39.946Z,13.61
2022-10-02T21:29:32.189Z,13.52
2022-10-02T21:32:10.454Z,13.50
2022-10-02T21:34:37.230Z,13.52
2022-10-02T21:37:29.419Z,13.53
2022-10-02T21:40:24.462Z,13.45
2022-10-02T21:43:17.797Z,13.49
2022-10-02T21:46:02.989Z,13.51
2022-10-02T21:49:05.533Z,13.53
2022-10-02T21:51:59.723Z,13.56
2022-10-02T21:54:38.383Z,13.43
2022-10-02T21:57:38.544Z,13.46
2022-10-02T22:00:14.982Z,13.47
2022-10-02T22:02:44.828Z,13.39
2022-10-02T22:05:30.296Z,13.38
2022-10-02T22:08:24.059Z,13.25
2022-10-02T22:10:59.801Z,13.15
2022-10-02T22:13:37.063Z,13.14
2022-10-02T22:16:16.042Z,13.07
2022-10-02T22:18:58.599Z,13.06
2022-10-02T22:21:56.504Z,13.04
2022-10-02T22:24:54.531Z,12.99
2022-10-02T22:27:21.393Z,12.98
2022-10-02T22:29:51.226Z,12.97
2022-10-02T22:32:46.680Z,12.95
2022-10-02T22:35:47.177Z,12.91
2022-10-02T22:38:40.483Z,13.03
2022-10-02T22:41:16.241Z,13.01
2022-10-02T22:43:53.855Z,12.99
2022-10-02T22:46:23.218Z,13.07
2022-10-02T22:48:53.973Z,13.13
2022-10-02T22:51:30.292Z,13.25
2022-10-02T22:54:12.040Z,13.16
2022-10-02T22:57:01.488Z,13.06
2022-10-02T22:59:31.103Z,13.16
2022-10-02T23:02:26.004Z,13.06
2022-10-02T23:05:14.095Z,13.18
2022-10-02T23:07:49.652Z,13.13
2022-10-02T23:10:29.258Z,13.15
2022-10-02T23:13:21.209Z,13.13
2022-10-02T23:16:00.092Z,13.17
2022-10-02T23:18:45.691Z,13.12
2022-10-02T23:21:39.167Z,13.16
2022-10-02T23:24:11.791Z,13.08
2022-10-02T23:26:47.452Z,12.96
2022-10-02T23:29:51.141Z,12.78
2022-10-02T23:32:42.745Z,12.81
2022-10-02T23:35:30.235Z,12.74
2022-10-02T23:38:15.471Z,12.89
2022-10-02T23:41:32.080Z,12.83
2022-10-02T23:44:02.883Z,12.94
2022-10-02T23:46:36.673Z,12.97
2022-10-02T23:49:03.619Z,12.90
2022-10-02T23:51:57.495Z,12.77
2022-10-02T23:54:34.196Z,12.60
2022-10-02T23:57:17.604Z,12.52
